Time;durP1;ratioP1;P1;durP2;ratioP2;P2;SDS_P1;SDS_P2;PMS_P1;PMS_P2;Temp;Humidity;BMP_temperature;BMP_pressure;BME280_temperature;BME280_humidity;BME280_pressure;Samples;Min_cycle;Max_cycle;Signal;HPM_P1;HPM_P2
2021/12/25 00:01:06;;;;;;;276.95;35.90;;;7.40;99.90;;;6.20;100.00;96441.91;4984875;28;20133;-70
2021/12/25 00:03:35;;;;;;;170.52;24.70;;;7.40;99.90;;;6.38;100.00;96435.94;4982130;28;20149;-68
2021/12/25 00:06:03;;;;;;;109.00;20.77;;;7.40;99.90;;;6.34;100.00;96434.44;4979940;28;20137;-68
2021/12/25 00:08:32;;;;;;;107.07;20.73;;;7.40;99.90;;;6.40;100.00;96430.75;4981953;28;20081;-69
2021/12/25 00:11:04;;;;;;;174.48;24.73;;;7.40;99.90;;;6.47;100.00;96437.28;4983457;28;20121;-68
2021/12/25 00:13:32;;;;;;;251.52;28.63;;;7.40;99.90;;;6.32;100.00;96443.97;4983523;28;20105;-68
2021/12/25 00:15:59;;;;;;;200.05;27.80;;;7.30;99.90;;;6.41;100.00;96437.56;4983450;28;20426;-68
2021/12/25 00:18:26;;;;;;;395.58;38.70;;;7.30;99.90;;;6.29;100.00;96441.50;4978330;28;20101;-68
2021/12/25 00:20:53;;;;;;;387.17;35.92;;;7.30;99.90;;;6.24;100.00;96441.72;4977797;28;20150;-68
2021/12/25 00:23:22;;;;;;;310.10;34.22;;;7.30;99.90;;;6.29;100.00;96428.63;4982186;28;20050;-69
2021/12/25 00:25:55;;;;;;;324.33;32.25;;;7.30;99.90;;;6.22;100.00;96435.78;4982460;28;20101;-68
2021/12/25 00:29:30;;;;;;;204.23;24.77;;;7.30;99.90;;;6.32;100.00;96432.81;4978580;28;20200;-68
2021/12/25 00:36:21;;;;;;;217.85;25.70;;;7.30;99.90;;;6.41;100.00;96430.69;4982451;28;20396;-68
2021/12/25 00:38:49;;;;;;;130.32;21.40;;;7.30;99.90;;;6.43;100.00;96434.03;4978583;28;20144;-68
2021/12/25 00:41:21;;;;;;;221.93;27.13;;;7.30;99.90;;;6.46;100.00;96431.31;4980427;28;20081;-69
2021/12/25 00:43:49;;;;;;;210.55;25.98;;;7.30;99.90;;;6.47;100.00;96432.97;4981890;28;20089;-68
2021/12/25 00:46:16;;;;;;;208.40;25.52;;;7.40;99.90;;;6.46;100.00;96426.16;4966108;28;20141;-69
2021/12/25 00:48:43;;;;;;;226.63;25.15;;;7.40;99.90;;;6.47;100.00;96432.13;4983775;28;20164;-69
2021/12/25 00:51:11;;;;;;;189.20;23.58;;;7.40;99.90;;;6.54;100.00;96427.53;4982514;28;20538;-68
2021/12/25 00:53:38;;;;;;;218.02;24.30;;;7.40;99.90;;;6.53;100.00;96426.72;4984172;28;20129;-69
2021/12/25 00:56:05;;;;;;;292.75;25.83;;;7.40;99.90;;;6.57;100.00;96422.25;4981176;28;20199;-68
2021/12/25 00:58:32;;;;;;;122.57;20.20;;;7.40;99.90;;;6.60;100.00;96422.94;4983264;28;20038;-70
2021/12/25 01:00:59;;;;;;;221.63;23.98;;;7.40;99.90;;;6.63;100.00;96424.56;4983416;28;20243;-70
2021/12/25 01:03:26;;;;;;;235.48;24.42;;;7.40;99.90;;;6.60;100.00;96422.94;4979634;28;20059;-70
2021/12/25 01:05:53;;;;;;;477.20;37.90;;;7.40;99.90;;;6.42;100.00;96423.78;4978095;28;20142;-70
2021/12/25 01:08:20;;;;;;;267.33;24.83;;;7.40;99.90;;;6.62;100.00;96421.16;4962060;28;20046;-70
2021/12/25 01:10:47;;;;;;;261.25;24.00;;;7.40;99.90;;;6.52;100.00;96425.03;4982468;28;20042;-70
2021/12/25 01:13:27;;;;;;;461.08;39.38;;;7.50;99.90;;;6.49;100.00;96414.88;4984459;28;20413;-70
2021/12/25 01:16:19;;;;;;;136.18;20.48;;;7.50;99.90;;;6.52;100.00;96416.47;4980943;28;20079;-70
2021/12/25 01:48:43;;;;;;;44.70;15.27;;;7.50;99.90;;;6.64;100.00;96403.03;4982261;28;20066;-70
2021/12/25 01:51:11;;;;;;;50.85;16.15;;;7.40;99.90;;;6.64;100.00;96401.28;4978587;28;20134;-70
2021/12/25 01:53:38;;;;;;;24.33;11.70;;;7.40;99.90;;;6.64;100.00;96406.44;4981925;28;20077;-70
2021/12/25 01:56:06;;;;;;;44.67;15.60;;;7.40;99.90;;;6.62;100.00;96404.84;4978730;28;20080;-70
2021/12/25 01:58:34;;;;;;;31.02;12.73;;;7.40;99.90;;;6.66;100.00;96390.88;4978576;28;20762;-70
2021/12/25 02:01:05;;;;;;;21.02;10.75;;;7.50;99.90;;;6.69;100.00;96390.75;4976876;28;20142;-70
2021/12/25 02:03:35;;;;;;;26.45;11.63;;;7.50;99.90;;;6.60;100.00;96392.00;4982473;28;20058;-70
2021/12/25 02:06:04;;;;;;;19.25;9.98;;;7.50;99.90;;;6.63;100.00;96397.03;4983192;28;20133;-70
2021/12/25 02:08:33;;;;;;;16.85;8.98;;;7.50;99.90;;;6.62;100.00;96392.78;4987720;28;20081;-70
2021/12/25 02:11:01;;;;;;;19.38;10.38;;;7.50;99.90;;;6.69;100.00;96388.19;4986104;28;20051;-70
2021/12/25 02:13:29;;;;;;;17.30;9.48;;;7.50;99.90;;;6.68;100.00;96383.91;4986927;28;20387;-70
2021/12/25 02:15:58;;;;;;;17.73;9.18;;;7.50;99.90;;;6.58;100.00;96391.25;5000559;28;20081;-70
2021/12/25 02:18:43;;;;;;;18.08;9.80;;;7.40;99.90;;;6.62;100.00;96387.63;4990190;28;20137;-70
2021/12/25 02:21:18;;;;;;;20.60;10.93;;;7.50;99.90;;;6.61;100.00;96382.53;4986864;28;20069;-70
2021/12/25 02:23:46;;;;;;;25.70;12.60;;;7.40;99.90;;;6.59;100.00;96381.75;4989686;28;20635;-70
2021/12/25 02:26:13;;;;;;;24.65;12.55;;;7.50;99.90;;;6.52;100.00;96383.78;4984357;28;20141;-70
2021/12/25 02:28:40;;;;;;;30.52;13.90;;;7.50;99.90;;;6.50;100.00;96385.63;4984801;28;20548;-70
2021/12/25 02:31:11;;;;;;;23.60;12.82;;;7.40;99.90;;;6.56;100.00;96380.16;4988278;28;20189;-70
2021/12/25 02:33:39;;;;;;;33.40;16.52;;;7.50;99.90;;;6.46;100.00;96384.91;4986215;28;20097;-70
2021/12/25 02:36:08;;;;;;;28.98;14.23;;;7.50;99.90;;;6.55;100.00;96383.66;4990901;28;20500;-70
2021/12/25 02:38:37;;;;;;;24.60;12.90;;;7.50;99.90;;;6.54;100.00;96374.22;4981253;28;20100;-70
2021/12/25 02:41:05;;;;;;;24.05;12.40;;;7.50;99.90;;;6.54;100.00;96374.22;4989111;28;20157;-70
2021/12/25 02:43:33;;;;;;;29.92;14.23;;;7.40;99.90;;;6.43;100.00;96377.31;4988886;28;20070;-70
2021/12/25 02:46:02;;;;;;;25.40;13.68;;;7.40;99.90;;;6.57;100.00;96370.69;4988891;28;20176;-70
2021/12/25 02:48:32;;;;;;;22.15;13.00;;;7.40;99.90;;;6.57;100.00;96360.38;4983197;28;20501;-70
2021/12/25 02:51:00;;;;;;;23.88;13.55;;;7.30;99.90;;;6.62;100.00;96363.59;4986841;28;20046;-70
2021/12/25 02:53:27;;;;;;;24.83;12.50;;;7.40;99.90;;;6.70;100.00;96357.19;4991013;28;20205;-70
2021/12/25 02:55:54;;;;;;;27.50;12.18;;;7.40;99.90;;;6.66;100.00;96352.19;4987946;28;20070;-70
2021/12/25 02:58:21;;;;;;;20.15;11.50;;;7.40;99.90;;;6.55;100.00;96347.56;4986168;28;20081;-70
2021/12/25 03:01:12;;;;;;;19.50;11.60;;;7.40;99.90;;;6.52;100.00;96350.25;4988968;28;20129;-72
2021/12/25 03:03:40;;;;;;;20.63;11.07;;;7.40;99.90;;;6.48;100.00;96341.03;4986974;28;20109;-70
2021/12/25 03:06:08;;;;;;;26.88;13.85;;;7.40;99.90;;;6.38;100.00;96342.34;4984239;28;20058;-70
2021/12/25 03:08:36;;;;;;;35.00;17.10;;;7.40;99.90;;;6.37;100.00;96346.66;4985919;28;20050;-70
2021/12/25 03:11:06;;;;;;;31.42;15.27;;;7.40;99.90;;;6.39;100.00;96349.19;4985026;28;20134;-69
2021/12/25 03:13:43;;;;;;;28.95;13.90;;;7.40;99.90;;;6.49;100.00;96346.09;4988387;28;20606;-70
2021/12/25 03:16:12;;;;;;;32.83;16.45;;;7.30;99.90;;;6.38;100.00;96348.31;4989624;28;20170;-70
2021/12/25 03:18:48;;;;;;;21.60;11.77;;;7.40;99.90;;;6.46;100.00;96346.25;4989743;28;20084;-70
2021/12/25 03:21:19;;;;;;;23.38;12.80;;;7.30;99.90;;;6.42;100.00;96347.28;4981911;28;20129;-70
2021/12/25 03:23:52;;;;;;;27.80;13.35;;;7.40;99.90;;;6.50;100.00;96349.53;4982708;28;20475;-70
2021/12/25 03:26:20;;;;;;;28.48;14.90;;;7.30;99.90;;;6.44;100.00;96349.81;4985799;28;20050;-70
2021/12/25 03:28:51;;;;;;;27.25;12.85;;;7.30;99.90;;;6.48;100.00;96343.59;4990079;28;20092;-70
2021/12/25 03:31:21;;;;;;;25.92;12.80;;;7.30;99.90;;;6.59;100.00;96343.09;4989115;28;20046;-69
2021/12/25 03:33:52;;;;;;;21.35;12.27;;;7.40;99.90;;;6.54;100.00;96339.91;4990108;28;20129;-70
2021/12/25 03:36:20;;;;;;;31.02;13.93;;;7.40;99.90;;;6.46;100.00;96337.69;4987333;28;20054;-70
2021/12/25 03:38:48;;;;;;;32.30;14.18;;;7.40;99.90;;;6.51;100.00;96343.44;4984680;28;20137;-70
2021/12/25 03:41:17;;;;;;;24.48;13.60;;;7.40;99.90;;;6.52;100.00;96341.69;4990510;28;20133;-70
2021/12/25 03:43:45;;;;;;;28.10;14.65;;;7.40;99.90;;;6.48;100.00;96339.28;4987748;28;20085;-70
2021/12/25 03:46:14;;;;;;;26.55;13.68;;;7.40;99.90;;;6.54;100.00;96337.31;4991284;28;20140;-69
2021/12/25 03:59:43;;;;;;;30.58;13.82;;;7.40;99.90;;;6.56;100.00;96331.19;4988480;28;20419;-70
2021/12/25 04:02:18;;;;;;;27.52;13.93;;;7.40;99.90;;;6.61;100.00;96324.06;4986525;28;20133;-69
2021/12/25 04:04:48;;;;;;;34.58;14.07;;;7.50;99.90;;;6.67;100.00;96328.09;4989242;28;20478;-70
2021/12/25 04:09:49;;;;;;;33.38;14.63;;;7.50;99.90;;;6.69;100.00;96329.69;4988858;28;20046;-70
2021/12/25 04:12:17;;;;;;;24.25;12.48;;;7.50;99.90;;;6.67;100.00;96322.94;4985817;28;20337;-70
2021/12/25 04:14:47;;;;;;;25.55;12.73;;;7.50;99.90;;;6.68;100.00;96328.03;4987346;28;20077;-70
2021/12/25 04:17:14;;;;;;;26.63;11.93;;;7.50;99.90;;;6.69;100.00;96332.28;4987698;28;20526;-70
2021/12/25 04:19:41;;;;;;;21.50;10.63;;;7.50;99.90;;;6.73;100.00;96327.81;4990642;28;20065;-70
2021/12/25 04:22:15;;;;;;;21.20;10.48;;;7.50;99.90;;;6.64;100.00;96328.25;4989394;28;20133;-70
2021/12/25 04:24:45;;;;;;;16.50;9.88;;;7.50;99.90;;;6.55;100.00;96326.13;4985286;28;20093;-70
2021/12/25 04:27:15;;;;;;;27.63;12.27;;;7.50;99.90;;;6.50;100.00;96334.06;4985432;28;20133;-70
2021/12/25 04:29:49;;;;;;;25.27;11.43;;;7.50;99.90;;;6.54;100.00;96338.16;4989804;28;20217;-70
2021/12/25 05:05:14;;;;;;;;;;;7.60;99.90;;;6.74;100.00;96326.91;4985520;28;20137;-70
2021/12/25 05:07:41;;;;;;;6.38;3.63;;;7.50;99.90;;;6.67;100.00;96320.38;4986170;28;20068;-70
2021/12/25 05:10:09;;;;;;;6.05;2.92;;;7.50;99.90;;;6.72;100.00;96320.16;4987905;28;20129;-70
2021/12/25 05:12:36;;;;;;;4.78;2.75;;;7.60;99.90;;;6.80;100.00;96318.06;4984421;28;20137;-70
2021/12/25 05:15:03;;;;;;;6.43;2.38;;;7.60;99.90;;;6.87;100.00;96314.28;4985677;28;20126;-70
2021/12/25 05:17:30;;;;;;;3.78;2.10;;;7.60;99.90;;;6.79;100.00;96311.22;4980817;28;20079;-70
2021/12/25 05:19:59;;;;;;;3.90;2.03;;;7.60;99.90;;;6.75;100.00;96312.25;4984541;28;20137;-70
2021/12/25 05:22:27;;;;;;;3.85;2.42;;;7.60;99.90;;;6.80;100.00;96312.91;4989053;28;20466;-70
2021/12/25 05:24:55;;;;;;;3.08;1.65;;;7.70;99.90;;;6.81;100.00;96310.22;4987082;28;20092;-70
2021/12/25 05:27:22;;;;;;;2.92;1.80;;;7.70;99.90;;;6.76;100.00;96307.03;4984463;28;20050;-70
2021/12/25 05:29:49;;;;;;;3.70;1.70;;;7.60;99.90;;;6.81;100.00;96306.81;4985728;28;20121;-70
2021/12/25 05:32:18;;;;;;;4.70;2.17;;;7.60;99.90;;;6.70;100.00;96303.03;4985201;28;20077;-70
2021/12/25 05:34:46;;;;;;;3.30;1.98;;;7.60;99.90;;;6.75;100.00;96302.81;4979363;28;20081;-70
2021/12/25 05:37:14;;;;;;;5.55;3.08;;;7.60;99.90;;;6.73;100.00;96299.47;4982103;28;20176;-70
2021/12/25 05:39:49;;;;;;;7.88;4.03;;;7.60;99.90;;;6.73;100.00;96302.03;4986451;28;20126;-70
2021/12/25 05:42:19;;;;;;;8.43;4.18;;;7.60;99.90;;;6.73;100.00;96291.72;4978079;28;20141;-70
2021/12/25 05:44:46;;;;;;;8.45;4.85;;;7.60;99.90;;;6.70;100.00;96300.44;4988369;28;20400;-70
2021/12/25 05:47:13;;;;;;;8.00;4.13;;;7.60;99.90;;;6.70;100.00;96305.59;4984140;28;20565;-70
2021/12/25 05:49:40;;;;;;;12.30;5.25;;;7.60;99.90;;;6.73;100.00;96299.47;4986598;28;20566;-70
2021/12/25 05:52:07;;;;;;;14.10;7.03;;;7.60;99.90;;;6.66;100.00;96311.81;4987283;28;20046;-70
2021/12/25 05:54:34;;;;;;;11.38;6.05;;;7.60;99.90;;;6.71;100.00;96306.44;4989973;28;20042;-70
2021/12/25 05:57:02;;;;;;;16.23;9.13;;;7.60;99.90;;;6.68;100.00;96309.13;4990928;28;20129;-70
2021/12/25 05:59:29;;;;;;;13.18;6.97;;;7.70;99.90;;;6.72;100.00;96315.00;4991145;28;20152;-70
2021/12/25 06:01:56;;;;;;;15.45;9.55;;;7.70;99.90;;;6.77;100.00;96315.59;4989775;28;20109;-70
2021/12/25 06:04:23;;;;;;;17.50;9.40;;;7.70;99.90;;;6.76;100.00;96312.19;4989272;28;20530;-70
2021/12/25 06:06:51;;;;;;;21.88;10.25;;;7.70;99.90;;;6.78;100.00;96312.13;4991691;28;20078;-70
2021/12/25 06:09:18;;;;;;;18.88;10.40;;;7.70;99.90;;;6.70;100.00;96320.22;4990950;28;20061;-68
2021/12/25 06:11:45;;;;;;;18.23;10.10;;;7.70;99.90;;;6.78;100.00;96314.72;4991683;28;20092;-68
2021/12/25 06:14:19;;;;;;;22.38;9.70;;;7.80;99.90;;;6.77;100.00;96325.91;4987290;28;20082;-68
2021/12/25 06:16:49;;;;;;;23.45;11.55;;;7.70;99.90;;;6.80;100.00;96315.47;4985460;28;20150;-68
2021/12/25 06:19:17;;;;;;;24.70;13.13;;;7.80;99.90;;;6.82;100.00;96318.78;4988714;28;20080;-68
2021/12/25 06:21:46;;;;;;;23.13;12.07;;;7.80;99.90;;;6.80;100.00;96333.53;4988216;28;20133;-68
2021/12/25 06:24:14;;;;;;;23.25;13.25;;;7.80;99.90;;;6.85;100.00;96329.81;4988848;28;20085;-67
2021/12/25 06:26:42;;;;;;;30.70;14.82;;;7.80;99.90;;;6.90;100.00;96330.41;4989975;28;20058;-68
2021/12/25 06:29:09;;;;;;;32.53;14.23;;;7.80;99.90;;;6.88;100.00;96333.97;4990108;28;20082;-68
2021/12/25 06:31:36;;;;;;;31.90;15.43;;;7.80;99.90;;;6.87;100.00;96330.56;4989829;28;20098;-67
2021/12/25 06:34:05;;;;;;;32.67;14.98;;;7.80;99.90;;;6.89;100.00;96333.91;4988798;28;20076;-68
2021/12/25 06:36:32;;;;;;;25.77;13.85;;;7.90;99.90;;;6.95;100.00;96332.78;4990164;28;20130;-68
2021/12/25 06:38:59;;;;;;;21.63;12.80;;;7.90;99.90;;;6.97;100.00;96341.28;4990929;28;20532;-68
2021/12/25 06:41:28;;;;;;;30.65;16.25;;;7.80;99.90;;;6.97;100.00;96338.69;4987607;28;20050;-68
2021/12/25 06:43:55;;;;;;;32.17;16.88;;;7.90;99.90;;;6.97;100.00;96345.63;4988382;28;20209;-68
2021/12/25 06:46:22;;;;;;;29.50;15.00;;;7.90;99.90;;;6.94;100.00;96338.84;4983662;28;20135;-68
2021/12/25 06:48:49;;;;;;;36.45;17.10;;;8.00;99.90;;;6.99;100.00;96354.13;4988226;28;20060;-68
2021/12/25 06:51:16;;;;;;;27.15;13.15;;;8.00;99.90;;;7.01;100.00;96345.38;4988842;28;20073;-67
2021/12/25 06:53:43;;;;;;;37.47;17.58;;;8.00;99.90;;;7.02;100.00;96352.22;4991904;28;20073;-68
2021/12/25 06:56:10;;;;;;;29.05;15.80;;;8.00;99.90;;;7.02;100.00;96353.97;4991022;28;20046;-68
2021/12/25 06:58:37;;;;;;;38.53;18.75;;;8.00;99.90;;;7.01;100.00;96352.31;4987246;28;20046;-68
2021/12/25 07:01:04;;;;;;;30.73;16.25;;;8.00;99.90;;;7.05;100.00;96349.50;4985481;28;20062;-68
2021/12/25 07:03:32;;;;;;;29.98;15.18;;;8.00;99.90;;;7.05;100.00;96361.56;4974485;28;20152;-68
2021/12/25 07:05:59;;;;;;;29.50;15.15;;;8.00;99.90;;;7.05;100.00;96359.00;4966788;28;20330;-67
2021/12/25 07:08:26;;;;;;;33.72;17.00;;;8.10;99.90;;;7.09;100.00;96366.50;4972161;28;20133;-68
2021/12/25 07:10:52;;;;;;;27.40;14.93;;;8.00;99.90;;;7.14;100.00;96361.13;4991025;28;20220;-68
2021/12/25 07:13:20;;;;;;;30.80;15.82;;;8.00;99.90;;;7.09;100.00;96363.06;4986170;28;20125;-68
2021/12/25 07:15:48;;;;;;;37.42;17.65;;;8.00;99.90;;;7.12;100.00;96363.78;4988679;28;20050;-68
2021/12/25 07:18:18;;;;;;;28.08;16.20;;;8.10;99.90;;;7.11;100.00;96371.56;4988129;28;20131;-68
2021/12/25 07:20:48;;;;;;;37.13;17.98;;;8.00;99.90;;;7.12;100.00;96379.25;4991627;28;20042;-68
2021/12/25 07:23:16;;;;;;;39.10;18.63;;;8.10;99.90;;;7.11;100.00;96379.31;4985132;28;20134;-68
2021/12/25 07:25:43;;;;;;;37.42;18.40;;;8.00;99.90;;;7.10;100.00;96375.09;4985575;28;20551;-68
2021/12/25 07:28:10;;;;;;;29.33;16.15;;;8.10;99.90;;;7.12;100.00;96381.00;4990883;28;20082;-68
2021/12/25 07:30:38;;;;;;;31.80;15.73;;;8.10;99.90;;;7.15;100.00;96390.34;4987930;28;20073;-68
2021/12/25 07:33:05;;;;;;;27.77;15.68;;;8.10;99.90;;;7.24;100.00;96384.75;4989963;28;20062;-68
2021/12/25 07:35:32;;;;;;;19.98;12.63;;;8.00;99.90;;;7.25;100.00;96384.66;4987139;28;20138;-68
2021/12/25 07:37:59;;;;;;;23.88;13.85;;;8.10;99.90;;;7.27;100.00;96387.16;4987644;28;20149;-67
2021/12/25 07:40:26;;;;;;;28.75;13.90;;;8.10;99.90;;;7.21;100.00;96384.91;4987583;28;20461;-68
2021/12/25 07:42:54;;;;;;;24.55;13.52;;;8.10;99.90;;;7.31;100.00;96393.84;4986035;28;20082;-68
2021/12/25 07:45:22;;;;;;;23.48;13.45;;;8.10;99.90;;;7.25;100.00;96396.72;4986657;28;20483;-67
2021/12/25 07:47:57;;;;;;;24.85;13.43;;;8.20;99.90;;;7.22;100.00;96413.19;4989492;28;20577;-68
2021/12/25 07:50:26;;;;;;;20.83;12.52;;;8.20;99.90;;;7.29;100.00;96408.56;4987117;28;20109;-68
2021/12/25 07:52:53;;;;;;;16.60;10.23;;;8.20;99.90;;;7.33;100.00;96408.34;4987451;28;20156;-68
2021/12/25 07:55:20;;;;;;;17.17;11.05;;;8.10;99.90;;;7.28;100.00;96412.91;4986354;28;20046;-68
2021/12/25 07:57:48;;;;;;;28.98;11.18;;;8.20;99.90;;;7.32;100.00;96401.53;4984763;28;20042;-68
2021/12/25 08:00:16;;;;;;;15.25;10.45;;;8.20;99.90;;;7.31;100.00;96409.34;4987043;28;20129;-69
2021/12/25 08:02:45;;;;;;;15.57;10.20;;;8.30;99.90;;;7.36;100.00;96407.38;4989064;28;20076;-68
2021/12/25 08:05:13;;;;;;;16.23;10.27;;;8.30;99.90;;;7.33;100.00;96410.94;4985627;28;20423;-68
2021/12/25 08:07:41;;;;;;;15.45;9.50;;;8.30;99.90;;;7.39;100.00;96406.38;4985437;28;20138;-68
2021/12/25 08:10:13;;;;;;;15.18;7.65;;;8.30;99.90;;;7.35;100.00;96410.03;4981918;28;20061;-68
2021/12/25 08:12:56;;;;;;;14.30;8.30;;;8.40;99.90;;;7.41;100.00;96408.00;4981550;28;20061;-68
2021/12/25 08:15:26;;;;;;;15.55;10.02;;;8.40;99.90;;;7.37;100.00;96406.47;5005038;28;20174;-68
2021/12/25 08:17:55;;;;;;;16.77;10.27;;;8.40;99.90;;;7.42;100.00;96406.25;4983362;28;20093;-68
2021/12/25 08:20:24;;;;;;;13.98;9.05;;;8.30;99.90;;;7.41;100.00;96414.88;4988281;28;20087;-68
2021/12/25 08:22:51;;;;;;;14.45;9.43;;;8.40;99.90;;;7.39;100.00;96414.13;4986771;28;20046;-68
2021/12/25 08:25:18;;;;;;;15.00;8.85;;;8.40;99.90;;;7.44;100.00;96413.00;4984528;28;20378;-68
2021/12/25 08:27:46;;;;;;;16.08;10.90;;;8.40;99.90;;;7.47;100.00;96417.19;4982191;28;20073;-68
2021/12/25 08:30:17;;;;;;;19.55;11.80;;;8.40;99.90;;;7.47;100.00;96414.59;4988349;28;20165;-68
2021/12/25 08:32:45;;;;;;;15.10;9.68;;;8.40;99.90;;;7.48;100.00;96421.41;4987822;28;20137;-68
2021/12/25 08:35:15;;;;;;;15.95;9.85;;;8.40;99.90;;;7.50;100.00;96414.44;4986548;28;20582;-68
2021/12/25 08:37:44;;;;;;;18.77;12.05;;;8.50;99.90;;;7.59;100.00;96418.31;4986917;28;20074;-68
2021/12/25 08:40:14;;;;;;;16.35;9.40;;;8.50;99.90;;;7.50;100.00;96417.00;4985152;28;20055;-68
2021/12/25 08:42:47;;;;;;;15.27;9.20;;;8.50;99.90;;;7.63;100.00;96417.25;4985888;28;20129;-68
2021/12/25 08:48:02;;;;;;;14.95;9.40;;;8.50;99.90;;;7.73;100.00;96421.03;4987567;28;20054;-68
2021/12/25 08:50:29;;;;;;;13.48;8.52;;;8.50;99.90;;;7.73;100.00;96418.47;4985620;28;20054;-68
2021/12/25 08:52:56;;;;;;;22.75;12.80;;;8.60;99.90;;;7.62;100.00;96419.00;4988806;28;20054;-68
2021/12/25 08:55:23;;;;;;;19.92;12.27;;;8.70;99.90;;;7.60;100.00;96418.25;4985368;28;20043;-68
2021/12/25 08:57:50;;;;;;;20.27;12.82;;;8.60;99.90;;;7.60;100.00;96409.69;4980166;28;20050;-69
2021/12/25 09:00:19;;;;;;;22.98;15.30;;;8.60;99.90;;;7.55;100.00;96407.31;4977913;28;20142;-68
2021/12/25 09:02:48;;;;;;;27.55;16.45;;;8.60;99.90;;;7.45;100.00;96413.81;4979806;28;20083;-68
2021/12/25 09:05:16;;;;;;;20.88;13.75;;;8.50;99.90;;;7.54;100.00;96419.38;4978637;28;20108;-68
2021/12/25 09:07:42;;;;;;;22.63;13.82;;;8.50;99.90;;;7.55;100.00;96433.16;4979891;28;20120;-68
2021/12/25 09:10:10;;;;;;;23.65;14.15;;;8.50;99.90;;;7.43;100.00;96433.72;4978965;28;20082;-68
2021/12/25 09:12:41;;;;;;;20.65;12.68;;;8.50;99.90;;;7.56;100.00;96436.56;4982041;28;20125;-68
2021/12/25 09:15:10;;;;;;;24.08;13.07;;;8.50;99.90;;;7.58;100.00;96432.97;4981940;28;20097;-68
2021/12/25 09:17:38;;;;;;;23.58;15.23;;;8.50;99.90;;;7.35;100.00;96439.25;4983004;28;20084;-68
2021/12/25 09:20:07;;;;;;;20.98;12.73;;;8.50;99.90;;;7.63;100.00;96437.91;4987426;28;20482;-68
2021/12/25 09:22:34;;;;;;;23.38;13.65;;;8.50;99.90;;;7.53;100.00;96445.28;4986689;28;20073;-68
2021/12/25 09:25:03;;;;;;;25.88;15.02;;;8.60;99.90;;;7.45;100.00;96448.22;4984886;28;20089;-68
2021/12/25 09:27:30;;;;;;;20.88;13.75;;;8.50;99.90;;;7.46;100.00;96443.91;4982368;28;20046;-68
2021/12/25 09:29:57;;;;;;;20.33;12.90;;;8.50;99.90;;;7.47;100.00;96455.91;4988842;28;20137;-68
2021/12/25 09:32:24;;;;;;;24.17;15.05;;;8.50;99.90;;;7.40;100.00;96457.13;4988562;28;20218;-68
2021/12/25 09:34:51;;;;;;;23.35;12.95;;;8.50;99.90;;;7.52;100.00;96456.50;4985735;28;20580;-68
2021/12/25 09:37:18;;;;;;;24.27;14.57;;;8.50;99.90;;;7.50;100.00;96455.75;4988154;28;20426;-68
2021/12/25 09:39:46;;;;;;;22.38;12.85;;;8.50;99.90;;;7.64;100.00;96449.91;4983360;28;20486;-68
2021/12/25 09:42:13;;;;;;;26.77;14.90;;;8.50;99.90;;;7.73;100.00;96454.63;4984778;28;20532;-68
2021/12/25 09:44:40;;;;;;;26.70;14.52;;;8.50;99.90;;;7.53;100.00;96455.63;4983338;28;20089;-68
2021/12/25 09:47:07;;;;;;;35.17;16.23;;;8.60;99.90;;;7.62;100.00;96457.75;4985931;28;20500;-68
2021/12/25 09:49:35;;;;;;;34.47;17.77;;;8.60;99.90;;;7.47;100.00;96453.31;4983836;28;20122;-68
2021/12/25 09:52:03;;;;;;;25.05;14.93;;;8.60;99.90;;;7.63;100.00;96459.41;4986418;28;20129;-68
2021/12/25 09:54:31;;;;;;;24.02;14.07;;;8.60;99.90;;;7.45;100.00;96458.56;4982950;28;20726;-68
2021/12/25 09:56:58;;;;;;;25.63;13.00;;;8.60;99.90;;;7.52;100.00;96452.19;4977240;28;20597;-68
2021/12/25 09:59:26;;;;;;;25.00;14.90;;;8.60;99.90;;;7.44;100.00;96462.06;4980552;28;20074;-68
2021/12/25 10:01:57;;;;;;;35.13;16.17;;;8.60;99.90;;;7.44;100.00;96461.22;4982077;28;20089;-68
2021/12/25 10:04:47;;;;;;;24.40;13.45;;;8.60;99.90;;;7.38;100.00;96467.50;4981677;28;20042;-68
2021/12/25 10:07:22;;;;;;;20.50;12.77;;;8.60;99.90;;;7.56;100.00;96463.22;4980041;28;20109;-68
2021/12/25 10:10:06;;;;;;;22.77;12.07;;;8.60;99.90;;;7.76;100.00;96457.06;4980645;28;20050;-68
2021/12/25 10:12:46;;;;;;;20.63;11.68;;;8.60;99.90;;;7.77;100.00;96457.91;4976929;28;20078;-68
2021/12/25 10:15:18;;;;;;;21.35;12.00;;;8.60;99.90;;;7.77;100.00;96453.56;4980114;28;20042;-68
2021/12/25 10:17:55;;;;;;;24.17;13.88;;;8.60;99.90;;;7.73;100.00;96457.22;4987673;28;20135;-68
2021/12/25 10:20:27;;;;;;;24.80;13.63;;;8.60;99.90;;;7.78;100.00;96459.56;4981905;28;20134;-68
2021/12/25 10:23:16;;;;;;;19.38;10.82;;;8.70;99.90;;;7.87;100.00;96467.72;4984056;28;20046;-68
2021/12/25 10:25:53;;;;;;;20.27;12.90;;;8.70;99.90;;;7.71;100.00;96464.22;4980692;28;20124;-68
2021/12/25 10:28:25;;;;;;;28.77;15.85;;;8.70;99.90;;;7.69;100.00;96466.03;4980272;28;20515;-68
2021/12/25 10:31:13;;;;;;;25.63;14.07;;;8.80;99.90;;;7.88;100.00;96460.78;4985695;28;20520;-68
2021/12/25 10:33:51;;;;;;;21.42;13.00;;;8.80;99.90;;;7.75;100.00;96461.41;4984432;28;20141;-68
2021/12/25 10:36:25;;;;;;;22.63;13.18;;;8.80;99.90;;;7.81;100.00;96462.84;4981370;28;20065;-68
2021/12/25 10:39:11;;;;;;;23.02;12.82;;;8.80;99.90;;;7.67;100.00;96463.53;4986415;28;20052;-68
2021/12/25 10:41:49;;;;;;;20.60;12.77;;;8.80;99.90;;;7.70;100.00;96457.38;4986787;28;20129;-68
2021/12/25 10:44:20;;;;;;;19.42;11.13;;;8.80;99.90;;;7.73;100.00;96452.03;4981289;28;20421;-68
2021/12/25 10:46:57;;;;;;;21.92;12.60;;;8.80;99.90;;;7.93;100.00;96444.13;4983816;28;20141;-68
2021/12/25 10:49:35;;;;;;;18.20;10.65;;;8.80;99.90;;;7.97;100.00;96453.41;4986662;28;20511;-68
2021/12/25 10:52:21;;;;;;;22.38;13.82;;;8.80;99.90;;;7.74;100.00;96448.56;4986650;28;20065;-69
2021/12/25 10:55:25;;;;;;;24.75;13.77;;;8.80;99.90;;;7.61;100.00;96456.06;4986729;28;20046;-68
2021/12/25 10:57:58;;;;;;;20.25;12.60;;;8.80;99.90;;;7.67;100.00;96444.63;5001831;28;20074;-69
2021/12/25 11:00:32;;;;;;;27.73;13.50;;;8.80;99.90;;;7.75;100.00;96445.91;4987560;28;20135;-69
2021/12/25 11:03:10;;;;;;;17.52;10.88;;;8.70;99.90;;;7.73;100.00;96442.56;4986419;28;20057;-69
2021/12/25 11:05:43;;;;;;;24.42;14.32;;;8.70;99.90;;;7.77;100.00;96448.41;4987378;28;20050;-69
2021/12/25 11:08:18;;;;;;;22.10;12.60;;;8.70;99.90;;;7.54;100.00;96442.63;4988998;28;20428;-69
2021/12/25 11:10:57;;;;;;;19.27;11.05;;;8.70;99.90;;;7.61;100.00;96440.56;4980955;28;20137;-69
2021/12/25 11:13:32;;;;;;;21.05;11.20;;;8.60;99.90;;;7.53;100.00;96446.13;4979625;28;20650;-69
2021/12/25 11:16:14;;;;;;;24.05;13.23;;;8.60;99.90;;;7.41;100.00;96440.69;4984560;28;20424;-68
2021/12/25 11:19:08;;;;;;;31.17;9.83;;;8.60;99.90;;;7.41;100.00;96440.69;4987385;28;20050;-68
2021/12/25 11:21:45;;;;;;;20.52;11.65;;;8.50;99.90;;;7.28;100.00;96441.28;4987211;28;20050;-68
2021/12/25 11:24:21;;;;;;;26.20;12.85;;;8.50;99.90;;;7.28;100.00;96453.38;4986740;28;20078;-69
2021/12/25 11:26:57;;;;;;;22.95;13.68;;;8.50;99.90;;;7.33;100.00;96453.97;4986230;28;20163;-68
2021/12/25 11:29:31;;;;;;;24.17;11.85;;;8.60;99.90;;;7.41;100.00;96448.44;4978872;28;20058;-68
2021/12/25 11:32:00;;;;;;;25.25;14.38;;;8.50;99.90;;;7.50;100.00;96441.13;4986545;28;20732;-68
2021/12/25 11:34:28;;;;;;;21.77;11.13;;;8.50;99.90;;;7.48;100.00;96442.94;4990676;28;20133;-68
2021/12/25 11:37:00;;;;;;;18.58;9.02;;;8.50;99.90;;;7.48;100.00;96444.66;4984316;28;20574;-68
2021/12/25 11:39:30;;;;;;;21.98;10.70;;;8.50;99.90;;;7.38;100.00;96441.69;4988681;28;20089;-68
2021/12/25 11:42:04;;;;;;;15.27;8.80;;;8.50;99.90;;;7.54;100.00;96436.63;4985153;28;20125;-68
2021/12/25 11:44:44;;;;;;;21.52;11.43;;;8.50;99.90;;;7.41;100.00;96436.41;4983881;28;20042;-68
2021/12/25 11:47:39;;;;;;;17.70;9.82;;;8.60;99.90;;;7.53;100.00;96434.97;4988304;28;20078;-68
2021/12/25 11:50:32;;;;;;;20.95;11.40;;;8.50;99.90;;;7.49;100.00;96436.00;4985622;28;20061;-68